Sklinnabanken — LJQM — position and weather

sailwx.info

Track history (hours):
 
Tides and Currents Weather Stations Pressure Air Temp Water Temp Dewpoint Dewpoint Depression Visibility Wind Speed Wind Dir Waves Ship Positions

Sklinnabanken

Last reported at 2015-Jun-05 18:24 UTC. Time now 2015-Sep-02 10:41 UTC.
Position N 63°30' E 009°06'.
Warning: this ship's position is months out of date.

Length 28 m; draft 6 m.

Type: Fishing. MMSI: 259648000.

Date/timePositionNaut miles runAvg speedWind from/ knotsBaromVisibWave heightAir tempDewpointWater temp
2015-Jun-05 18:24N 63°30' E 009°06'8 8.7
2015-Jun-05 17:26N 63°34' E 009°22'7 8.5
2015-Jun-05 16:33N 63°41' E 009°30'9 8.9
2015-Jun-05 15:33N 63°49' E 009°36'9 8.7
2015-Jun-05 14:33N 63°56' E 009°48'9 8.9
2015-Jun-05 13:33N 64°03' E 010°02'47 7.8
2015-Jun-05 07:33N 64°44' E 010°56'9 8.6
2015-Jun-05 06:33N 64°50' E 011°10'9 8.9
2015-Jun-05 05:33N 64°56' E 011°25'9 8.6
2015-Jun-05 04:34N 65°01' E 011°41'9 8.5
2015-Jun-05 03:33N 65°09' E 011°50'9 8.6
2015-Jun-05 02:33N 65°17' E 011°57'45 8.3
2015-Jun-04 21:09N 65°59' E 012°30'8 8.3
2015-Jun-04 20:12N 66°06' E 012°42'6 8.5
2015-Jun-04 19:32N 66°10' E 012°50'9 8.8
2015-Jun-04 18:31N 66°19' E 012°56'9 8.8
2015-Jun-04 17:29N 66°28' E 012°59'8 7.9
2015-Jun-04 16:28N 66°36' E 013°04'9 8.7
2015-Jun-04 15:25N 66°44' E 013°12'11 5.7
2015-Jun-04 13:33N 66°51' E 013°33'0 0.2
2015-Jun-04 12:34N 66°51' E 013°33'7 7.3
2015-Jun-04 11:33N 66°58' E 013°31'9 8.5
2015-Jun-04 10:33N 67°03' E 013°49'8 8.4
2015-Jun-04 09:33N 67°09' E 014°02'9 8.6
2015-Jun-04 08:33N 67°17' E 014°14'9 8.8
2015-Jun-04 07:33N 67°24' E 014°26'9 8.9
2015-Jun-04 06:33N 67°33' E 014°30'159 8.4
2015-Jun-03 11:33N 69°38' E 018°57'  
Track history (hours):
 
Tides and Currents Weather Stations Pressure Air Temp Water Temp Dewpoint Dewpoint Depression Visibility Wind Speed Wind Dir Waves Ship Positions

Sklinnabanken

Last reported at 2015-Jun-05 18:24 UTC. Time now 2015-Sep-02 10:41 UTC.
Position N 63°30' E 009°06'.
Warning: this ship's position is months out of date.

Length 28 m; draft 6 m.

Type: Fishing. MMSI: 259648000.

Date/timePositionNaut miles runAvg speedWind from/ knotsBaromVisibWave heightAir tempDewpointWater temp
2015-Jun-05 18:24N 63°30' E 009°06'8 8.7
2015-Jun-05 17:26N 63°34' E 009°22'7 8.5
2015-Jun-05 16:33N 63°41' E 009°30'9 8.9
2015-Jun-05 15:33N 63°49' E 009°36'9 8.7
2015-Jun-05 14:33N 63°56' E 009°48'9 8.9
2015-Jun-05 13:33N 64°03' E 010°02'47 7.8
2015-Jun-05 07:33N 64°44' E 010°56'9 8.6
2015-Jun-05 06:33N 64°50' E 011°10'9 8.9
2015-Jun-05 05:33N 64°56' E 011°25'9 8.6
2015-Jun-05 04:34N 65°01' E 011°41'9 8.5
2015-Jun-05 03:33N 65°09' E 011°50'9 8.6
2015-Jun-05 02:33N 65°17' E 011°57'45 8.3
2015-Jun-04 21:09N 65°59' E 012°30'8 8.3
2015-Jun-04 20:12N 66°06' E 012°42'6 8.5
2015-Jun-04 19:32N 66°10' E 012°50'9 8.8
2015-Jun-04 18:31N 66°19' E 012°56'9 8.8
2015-Jun-04 17:29N 66°28' E 012°59'8 7.9
2015-Jun-04 16:28N 66°36' E 013°04'9 8.7
2015-Jun-04 15:25N 66°44' E 013°12'11 5.7
2015-Jun-04 13:33N 66°51' E 013°33'0 0.2
2015-Jun-04 12:34N 66°51' E 013°33'7 7.3
2015-Jun-04 11:33N 66°58' E 013°31'9 8.5
2015-Jun-04 10:33N 67°03' E 013°49'8 8.4
2015-Jun-04 09:33N 67°09' E 014°02'9 8.6
2015-Jun-04 08:33N 67°17' E 014°14'9 8.8
2015-Jun-04 07:33N 67°24' E 014°26'9 8.9
2015-Jun-04 06:33N 67°33' E 014°30'159 8.4
2015-Jun-03 11:33N 69°38' E 018°57'  

Dump ship's entire track history